createdAt,value
2023-05-22T00:33:07.891Z,6.32
2023-05-22T00:35:11.120Z,6.65
2023-05-22T00:36:13.212Z,7.03
2023-05-22T00:37:14.906Z,6.63
2023-05-22T00:38:32.956Z,7.25
2023-05-22T00:39:34.692Z,6.75
2023-05-22T00:40:36.505Z,6.78
2023-05-22T00:41:38.351Z,7.03
2023-05-22T00:42:40.047Z,6.57
2023-05-22T00:43:41.706Z,6.45
2023-05-22T00:44:43.393Z,6.88
2023-05-22T00:45:45.051Z,7.63
2023-05-22T00:46:46.853Z,6.72
2023-05-22T00:47:49.175Z,7.20
2023-05-22T00:48:51.792Z,6.85
2023-05-22T00:54:00.218Z,6.55
2023-05-22T00:55:01.909Z,6.78
2023-05-22T00:56:03.650Z,6.90
2023-05-22T00:57:05.514Z,6.22
2023-05-22T00:58:07.914Z,7.03
2023-05-22T00:59:09.573Z,6.85
2023-05-22T01:00:11.739Z,7.55
2023-05-22T01:01:13.442Z,6.85
2023-05-22T01:02:15.633Z,6.80
2023-05-22T01:03:17.540Z,8.40
2023-05-22T01:04:19.261Z,7.28
2023-05-22T01:05:22.929Z,7.15
2023-05-22T01:06:24.610Z,7.30
2023-05-22T01:07:26.299Z,7.03
2023-05-22T01:08:27.975Z,6.82
2023-05-22T01:09:30.033Z,7.22
2023-05-22T01:10:31.710Z,6.82
2023-05-22T01:11:59.547Z,6.82
2023-05-22T01:13:05.170Z,6.68
2023-05-22T01:14:29.628Z,6.57
2023-05-22T01:15:40.285Z,6.82
2023-05-22T01:16:55.468Z,6.50
2023-05-22T01:18:19.284Z,7.15
2023-05-22T01:19:35.865Z,7.10
2023-05-22T01:20:40.975Z,7.97
2023-05-22T01:22:06.075Z,6.78
2023-05-22T01:24:32.923Z,7.05
2023-05-22T01:26:03.438Z,6.40
2023-05-22T01:27:13.860Z,8.20
2023-05-22T01:29:44.331Z,6.75
2023-05-22T01:30:55.188Z,6.55
2023-05-22T01:31:57.801Z,6.63
2023-05-22T01:32:59.573Z,6.90
2023-05-22T01:34:01.395Z,6.68
2023-05-22T01:35:05.533Z,7.45
2023-05-22T01:36:07.399Z,7.07
2023-05-22T01:37:09.075Z,6.97
2023-05-22T01:38:10.778Z,7.35
2023-05-22T01:39:12.438Z,7.38
2023-05-22T01:40:14.195Z,7.15
2023-05-22T01:41:15.858Z,7.43
2023-05-22T01:42:18.148Z,7.70
2023-05-22T01:43:19.912Z,7.40
2023-05-22T01:44:21.595Z,8.27
2023-05-22T01:45:23.483Z,7.35
2023-05-22T01:46:26.697Z,8.73
2023-05-22T01:47:28.505Z,8.57
2023-05-22T01:48:30.189Z,7.78
2023-05-22T01:49:33.061Z,9.85
2023-05-22T01:50:34.743Z,8.48
2023-05-22T01:51:47.676Z,7.88
2023-05-22T01:53:09.172Z,8.00
2023-05-22T01:54:16.323Z,7.13
2023-05-22T01:55:24.717Z,7.30
2023-05-22T01:56:31.220Z,8.55
2023-05-22T01:57:57.452Z,7.90
2023-05-22T02:00:14.882Z,7.45
2023-05-22T02:01:19.649Z,7.93
2023-05-22T02:02:21.743Z,8.25
2023-05-22T02:04:26.718Z,7.57
2023-05-22T02:05:28.380Z,8.13
2023-05-22T02:06:30.029Z,8.63
2023-05-22T02:07:32.908Z,8.00
2023-05-22T02:08:35.826Z,8.30
2023-05-22T02:09:37.755Z,8.35
2023-05-22T02:10:39.721Z,8.73
2023-05-22T02:11:45.027Z,7.97
2023-05-22T02:12:46.673Z,8.13
2023-05-22T02:13:48.885Z,7.90
2023-05-22T02:14:50.556Z,8.40
2023-05-22T02:15:52.342Z,8.05
2023-05-22T02:16:54.043Z,7.30
2023-05-22T02:17:55.762Z,7.95
2023-05-22T02:19:01.128Z,7.97
2023-05-22T02:20:02.844Z,7.90
2023-05-22T02:21:04.715Z,7.03
2023-05-22T02:22:07.028Z,8.75
2023-05-22T02:23:11.496Z,7.47
2023-05-22T02:24:13.173Z,8.07
2023-05-22T02:25:16.103Z,7.35
2023-05-22T02:26:18.794Z,7.13
2023-05-22T02:27:20.593Z,7.18
2023-05-22T02:28:22.254Z,7.80
2023-05-22T02:29:24.549Z,8.20
2023-05-22T02:30:26.403Z,7.65
2023-05-22T02:31:29.451Z,8.15
2023-05-22T02:32:31.882Z,7.82
2023-05-22T02:33:33.540Z,8.35
2023-05-22T02:34:35.223Z,8.32
2023-05-22T02:35:36.934Z,7.85
2023-05-22T02:36:38.906Z,7.65
2023-05-22T02:37:40.610Z,8.25
2023-05-22T02:38:42.528Z,8.93
2023-05-22T02:39:44.207Z,8.07
2023-05-22T02:40:46.172Z,7.50
2023-05-22T02:41:47.837Z,8.07
2023-05-22T02:42:49.808Z,7.50
2023-05-22T02:43:52.281Z,7.85
2023-05-22T02:44:53.981Z,8.38
2023-05-22T02:45:55.696Z,7.88
2023-05-22T02:46:57.480Z,7.97
2023-05-22T02:47:59.209Z,7.85
2023-05-22T02:49:01.415Z,7.60
2023-05-22T02:50:03.098Z,7.82
2023-05-22T02:51:05.844Z,7.65
2023-05-22T02:52:07.488Z,8.30
2023-05-22T02:53:09.141Z,7.50
2023-05-22T02:54:10.896Z,8.55
2023-05-22T02:55:12.777Z,7.68
2023-05-22T02:56:14.454Z,7.32
2023-05-22T02:57:18.886Z,8.73
2023-05-22T02:58:20.569Z,8.93
2023-05-22T02:59:22.250Z,9.05
2023-05-22T03:00:23.937Z,7.68
2023-05-22T03:01:25.747Z,7.88
2023-05-22T03:02:27.559Z,8.27
2023-05-22T03:03:29.691Z,8.05
2023-05-22T03:05:33.414Z,8.05
2023-05-22T03:07:36.556Z,7.50
2023-05-22T03:08:38.297Z,8.48
2023-05-22T03:09:39.972Z,8.02
2023-05-22T03:10:42.212Z,8.27
2023-05-22T03:11:43.894Z,8.02
2023-05-22T03:12:45.558Z,8.15
2023-05-22T03:13:47.250Z,8.13
2023-05-22T03:14:49.027Z,8.27
2023-05-22T03:15:50.935Z,7.32
2023-05-22T03:17:54.496Z,7.55
2023-05-22T03:19:12.144Z,8.02
2023-05-22T03:20:14.151Z,7.90
2023-05-22T03:21:15.827Z,7.65
2023-05-22T03:22:17.542Z,7.63
2023-05-22T03:23:20.566Z,7.68
2023-05-22T03:24:22.325Z,7.10
2023-05-22T03:25:24.055Z,8.05
2023-05-22T03:26:25.827Z,7.88
2023-05-22T03:27:27.647Z,7.45
2023-05-22T03:28:29.873Z,7.55
2023-05-22T03:29:31.620Z,7.50
2023-05-22T03:30:33.817Z,7.93
2023-05-22T03:31:47.388Z,7.32
2023-05-22T03:32:49.961Z,7.57
2023-05-22T03:33:54.916Z,7.57
2023-05-22T03:34:57.001Z,7.57
2023-05-22T03:35:58.669Z,8.05
2023-05-22T03:37:00.333Z,7.22
2023-05-22T03:38:02.577Z,7.82
2023-05-22T03:39:04.437Z,8.00
2023-05-22T03:40:10.612Z,6.82
2023-05-22T03:41:12.326Z,7.68
2023-05-22T03:42:14.021Z,7.88
2023-05-22T03:43:15.725Z,7.63
2023-05-22T03:44:17.407Z,6.93
2023-05-22T03:45:19.180Z,6.45
2023-05-22T03:46:22.114Z,6.25
2023-05-22T03:47:23.896Z,7.07
2023-05-22T03:48:26.239Z,6.50
2023-05-22T03:49:27.962Z,6.55
2023-05-22T03:50:29.677Z,6.68
2023-05-22T03:51:31.357Z,8.63
2023-05-22T03:52:33.021Z,6.72
2023-05-22T03:53:34.722Z,7.05
2023-05-22T03:54:36.373Z,7.03
2023-05-22T03:55:38.830Z,6.72
2023-05-22T03:56:40.568Z,6.63
2023-05-22T03:57:43.034Z,6.43
2023-05-22T03:58:44.718Z,7.05
2023-05-22T03:59:46.568Z,7.00
2023-05-22T04:00:48.236Z,7.15
2023-05-22T04:01:49.969Z,6.97
2023-05-22T04:02:52.850Z,7.25
2023-05-22T04:03:54.594Z,6.90
2023-05-22T04:04:56.313Z,7.60
2023-05-22T04:05:58.829Z,7.65
2023-05-22T04:07:00.571Z,7.95
2023-05-22T04:08:02.220Z,7.57
2023-05-22T04:09:03.943Z,6.90
2023-05-22T04:10:05.991Z,7.38
2023-05-22T04:11:07.703Z,7.47
2023-05-22T04:12:09.622Z,7.53
2023-05-22T04:13:11.279Z,7.97
2023-05-22T04:14:14.760Z,7.30
2023-05-22T04:15:16.554Z,6.90
2023-05-22T04:16:18.589Z,7.47
2023-05-22T04:17:20.333Z,6.80
2023-05-22T04:18:21.980Z,7.43
2023-05-22T04:19:23.681Z,6.85
2023-05-22T04:20:25.397Z,7.00
2023-05-22T04:21:27.503Z,7.50
2023-05-22T04:22:29.166Z,7.82
2023-05-22T04:23:30.829Z,7.45
2023-05-22T04:24:32.503Z,7.25
2023-05-22T04:25:34.604Z,7.65
2023-05-22T04:26:36.506Z,7.18
2023-05-22T04:27:38.241Z,7.75
2023-05-22T04:28:39.900Z,7.43
2023-05-22T04:29:41.580Z,8.30
2023-05-22T04:30:44.115Z,7.15
2023-05-22T04:31:45.827Z,7.00
2023-05-22T04:32:47.703Z,7.75
2023-05-22T04:33:49.864Z,7.57
2023-05-22T04:35:53.141Z,7.15
2023-05-22T04:36:54.797Z,6.82
2023-05-22T04:37:59.404Z,7.18
2023-05-22T04:39:01.086Z,7.43
2023-05-22T04:40:02.816Z,7.00
2023-05-22T04:41:04.553Z,7.28
2023-05-22T04:42:06.183Z,8.15
2023-05-22T04:43:08.000Z,8.10
2023-05-22T04:44:09.672Z,8.05
2023-05-22T04:45:11.539Z,14.20
2023-05-22T04:46:13.461Z,10.73
2023-05-22T04:47:15.164Z,12.25
2023-05-22T04:48:16.847Z,10.00
2023-05-22T04:49:18.524Z,8.77
2023-05-22T04:50:20.645Z,8.43
2023-05-22T04:52:24.423Z,7.97
2023-05-22T04:53:26.139Z,6.97
2023-05-22T04:54:28.006Z,7.63
2023-05-22T04:56:36.829Z,6.85
2023-05-22T04:57:40.129Z,6.53
2023-05-22T04:58:42.665Z,6.57
2023-05-22T04:59:44.326Z,7.05
2023-05-22T05:00:46.037Z,7.20
2023-05-22T05:01:47.750Z,7.55
2023-05-22T05:02:49.440Z,7.30
2023-05-22T05:03:53.326Z,6.82
2023-05-22T05:04:55.071Z,8.07
2023-05-22T05:05:56.751Z,7.50
2023-05-22T05:06:58.496Z,6.55
2023-05-22T05:08:00.175Z,7.15
2023-05-22T05:09:01.827Z,6.75
2023-05-22T05:10:04.404Z,6.70
2023-05-22T05:11:06.125Z,6.30
2023-05-22T05:12:07.881Z,6.85
2023-05-22T05:13:10.455Z,7.28
2023-05-22T05:14:13.978Z,6.78
2023-05-22T05:16:17.197Z,6.40
2023-05-22T05:17:18.883Z,6.85
2023-05-22T05:18:20.555Z,6.90
2023-05-22T05:19:22.974Z,6.45
2023-05-22T05:20:24.744Z,6.70
2023-05-22T05:21:26.432Z,7.18
2023-05-22T05:22:28.155Z,6.30
2023-05-22T05:23:29.855Z,7.70
2023-05-22T05:24:31.639Z,6.95
2023-05-22T05:25:33.346Z,7.97
2023-05-22T05:26:35.123Z,7.65
2023-05-22T05:27:37.471Z,7.50
2023-05-22T05:28:39.646Z,36.37
2023-05-22T05:29:42.457Z,7.95
2023-05-22T05:30:52.223Z,6.53
2023-05-22T05:32:23.152Z,6.07
2023-05-22T05:33:34.695Z,6.20
2023-05-22T05:34:43.343Z,6.97
2023-05-22T05:37:15.889Z,6.22
2023-05-22T05:38:18.826Z,6.50
2023-05-22T05:43:37.292Z,5.28
2023-05-22T05:44:41.932Z,7.25
2023-05-22T05:45:43.722Z,6.63
2023-05-22T05:46:45.546Z,6.93
2023-05-22T05:47:49.129Z,6.40
2023-05-22T05:49:54.428Z,5.90
2023-05-22T05:50:57.092Z,6.63
2023-05-22T05:55:04.757Z,6.00
2023-05-22T05:56:08.001Z,7.55
2023-05-22T05:57:10.510Z,6.80
2023-05-22T05:58:12.269Z,6.60
2023-05-22T05:59:20.246Z,6.50
2023-05-22T06:00:53.722Z,6.25
2023-05-22T06:01:55.476Z,6.30
2023-05-22T06:03:01.865Z,6.45
2023-05-22T06:04:18.616Z,5.60
2023-05-22T06:05:22.668Z,6.25
2023-05-22T06:06:30.543Z,5.75
2023-05-22T06:07:52.725Z,5.90
2023-05-22T06:08:54.532Z,5.75
2023-05-22T06:10:02.476Z,5.75
2023-05-22T06:11:13.590Z,5.95
2023-05-22T06:12:25.462Z,5.22
2023-05-22T06:13:28.288Z,9.52
2023-05-22T06:14:30.352Z,5.57
2023-05-22T06:30:00.188Z,5.50
2023-05-22T06:31:05.669Z,5.50
2023-05-22T06:32:08.140Z,5.10
2023-05-22T06:33:11.855Z,7.00
2023-05-22T06:34:17.807Z,7.57
2023-05-22T06:35:19.566Z,5.97
2023-05-22T06:36:22.487Z,7.93
2023-05-22T06:37:24.159Z,6.82
2023-05-22T06:38:27.099Z,7.30
2023-05-22T06:39:29.896Z,7.05
2023-05-22T06:40:48.491Z,7.07
2023-05-22T06:41:58.736Z,5.72
2023-05-22T06:43:01.050Z,8.73
2023-05-22T06:44:02.721Z,7.05
2023-05-22T06:45:05.717Z,6.30
2023-05-22T06:46:16.490Z,8.27
2023-05-22T06:47:26.709Z,7.82
2023-05-22T06:48:34.221Z,6.60
2023-05-22T06:49:56.825Z,7.85
2023-05-22T06:50:58.517Z,6.47
2023-05-22T06:52:02.251Z,6.85
2023-05-22T06:53:05.784Z,5.90
2023-05-22T06:54:07.501Z,6.25
2023-05-22T06:55:11.139Z,5.75
2023-05-22T06:56:25.225Z,5.35
2023-05-22T06:57:39.071Z,5.10
2023-05-22T06:58:40.785Z,5.50
2023-05-22T06:59:42.491Z,6.18
2023-05-22T07:01:06.945Z,5.97
2023-05-22T07:02:14.356Z,5.15
2023-05-22T07:04:54.226Z,5.10
2023-05-22T07:06:06.473Z,4.65
2023-05-22T07:07:08.591Z,5.45
2023-05-22T07:08:10.260Z,5.50
2023-05-22T07:09:12.927Z,5.35
2023-05-22T07:10:14.709Z,4.68
2023-05-22T07:11:16.459Z,5.63
2023-05-22T07:12:18.139Z,15.60
2023-05-22T07:14:21.701Z,220.80
2023-05-22T07:15:23.328Z,91.70
2023-05-22T07:16:28.018Z,138.15
2023-05-22T07:17:30.128Z,80.85
2023-05-22T07:18:32.465Z,153.10
2023-05-22T07:19:34.338Z,158.07
2023-05-22T07:20:38.354Z,110.77
2023-05-22T07:21:58.463Z,76.40
2023-05-22T07:23:00.688Z,132.40
2023-05-22T07:24:02.843Z,108.00
2023-05-22T07:25:04.935Z,118.60
2023-05-22T07:26:07.733Z,105.15
2023-05-22T07:34:45.183Z,115.63
2023-05-22T07:35:47.217Z,72.40
2023-05-22T07:36:49.329Z,82.25
2023-05-22T07:43:01.882Z,193.30
2023-05-22T07:44:03.495Z,119.50
2023-05-22T07:47:22.031Z,125.40
2023-05-22T07:48:24.590Z,146.55
2023-05-22T07:55:47.492Z,127.30
2023-05-22T07:56:49.329Z,451.70
2023-05-22T07:57:52.704Z,59.87
2023-05-22T07:59:02.935Z,42.70
2023-05-22T08:00:04.768Z,206.15
2023-05-22T08:03:17.528Z,158.30
2023-05-22T08:04:19.697Z,178.50
2023-05-22T08:07:24.521Z,322.38
2023-05-22T08:08:26.199Z,5.43
2023-05-22T08:11:48.681Z,121.13
2023-05-22T08:12:50.335Z,122.40
2023-05-22T08:25:15.495Z,134.57
2023-05-22T08:48:56.482Z,135.90
2023-05-22T08:58:22.414Z,148.60
2023-05-22T09:00:25.648Z,243.55
2023-05-22T09:01:28.753Z,124.95
2023-05-22T09:02:31.166Z,97.10
2023-05-22T09:03:33.025Z,100.70
2023-05-22T09:04:35.159Z,119.90
2023-05-22T09:05:36.789Z,116.20
2023-05-22T09:06:38.440Z,124.00
2023-05-22T09:07:40.072Z,131.50
2023-05-22T09:09:43.235Z,131.05
2023-05-22T09:10:45.090Z,128.60
2023-05-22T09:11:46.740Z,114.50
2023-05-22T09:19:23.093Z,133.30
2023-05-22T09:33:58.511Z,111.83
2023-05-22T09:35:03.548Z,127.30
2023-05-22T09:36:05.667Z,125.90
2023-05-22T09:37:07.298Z,107.80
2023-05-22T09:41:22.382Z,255.50
2023-05-22T09:45:29.308Z,135.40
2023-05-22T09:47:32.693Z,132.05
2023-05-22T09:48:34.969Z,123.10
2023-05-22T09:49:45.526Z,122.57
2023-05-22T09:50:47.915Z,125.30
2023-05-22T09:51:49.640Z,124.53
2023-05-22T09:53:53.631Z,129.10
2023-05-22T09:55:57.399Z,132.70
2023-05-22T09:58:03.951Z,129.13
2023-05-22T10:07:24.613Z,128.00
2023-05-22T10:13:39.530Z,150.90
2023-05-22T11:01:38.297Z,71.50
2023-05-22T11:05:30.576Z,3.60
2023-05-22T11:10:55.038Z,5.13
2023-05-22T11:13:13.450Z,312.98
2023-05-22T11:14:18.611Z,3.08
2023-05-22T11:15:30.540Z,3.63
2023-05-22T11:16:34.929Z,3.10
2023-05-22T11:17:39.608Z,3.70
2023-05-22T11:18:41.394Z,3.60
2023-05-22T11:19:43.299Z,4.07
2023-05-22T11:20:44.982Z,3.42
2023-05-22T11:21:46.770Z,4.10
2023-05-22T11:23:01.103Z,3.33
2023-05-22T11:24:02.779Z,3.20
2023-05-22T11:25:08.802Z,3.70
2023-05-22T11:26:28.345Z,3.80
2023-05-22T11:27:29.989Z,3.42
2023-05-22T11:28:31.641Z,3.45
2023-05-22T11:29:33.404Z,3.20
2023-05-22T11:30:35.173Z,3.53
2023-05-22T11:31:36.965Z,3.20
2023-05-22T11:32:39.429Z,3.17
2023-05-22T11:33:41.152Z,3.58
2023-05-22T11:34:43.342Z,3.10
2023-05-22T11:35:45.154Z,3.10
2023-05-22T12:07:10.682Z,19.38
2023-05-22T12:12:19.960Z,401.90
2023-05-22T12:14:31.538Z,587.05
2023-05-22T12:15:33.191Z,142.50
2023-05-22T12:17:39.742Z,130.20
2023-05-22T12:18:41.406Z,123.17
2023-05-22T12:19:46.100Z,129.40
2023-05-22T12:21:50.694Z,94.80
2023-05-22T12:22:52.379Z,106.60
2023-05-22T12:24:55.500Z,116.90
2023-05-22T12:32:13.947Z,3.33
2023-05-22T12:33:15.793Z,3.92
2023-05-22T12:34:17.733Z,3.50
2023-05-22T12:35:19.556Z,3.50
2023-05-22T12:36:21.596Z,4.28
2023-05-22T12:37:23.911Z,80.40
2023-05-22T12:40:38.066Z,105.30
2023-05-22T12:41:39.888Z,134.47
2023-05-22T12:44:45.647Z,150.30
2023-05-22T12:45:49.881Z,3.67
2023-05-22T12:46:52.307Z,149.30
2023-05-22T12:56:09.170Z,174.65
2023-05-22T13:07:25.929Z,126.55
2023-05-22T13:09:29.040Z,144.40
2023-05-22T13:11:32.274Z,132.75
2023-05-22T13:37:11.672Z,335.05
2023-05-22T13:38:13.357Z,125.00
2023-05-22T13:51:33.273Z,140.10
2023-05-22T13:52:34.911Z,132.50
2023-05-22T13:53:36.584Z,85.15
2023-05-22T13:54:38.245Z,5.00
2023-05-22T13:55:40.055Z,8.00
2023-05-22T13:57:43.284Z,95.30
2023-05-22T13:58:44.937Z,111.40
2023-05-22T13:59:46.586Z,90.25
2023-05-22T14:00:48.297Z,109.80
2023-05-22T14:01:50.247Z,117.73
2023-05-22T14:02:52.089Z,126.60
2023-05-22T14:03:54.082Z,130.35
2023-05-22T14:04:55.870Z,133.90
2023-05-22T14:42:10.365Z,159.40
2023-05-22T14:43:12.103Z,133.45
2023-05-22T14:44:13.800Z,199.60
